sensor_id;sensor_type;location;lat;lon;timestamp;temperature;humidity
7846;DHT22;3968;51.424;6.788;2023-02-28T00:00:04;2.80;99.90
7846;DHT22;3968;51.424;6.788;2023-02-28T00:02:37;2.80;99.90
7846;DHT22;3968;51.424;6.788;2023-02-28T00:05:04;2.80;99.90
7846;DHT22;3968;51.424;6.788;2023-02-28T00:07:31;2.80;99.90
7846;DHT22;3968;51.424;6.788;2023-02-28T00:09:57;2.80;99.90
7846;DHT22;3968;51.424;6.788;2023-02-28T00:12:22;2.70;99.90
7846;DHT22;3968;51.424;6.788;2023-02-28T00:14:48;2.70;99.90
7846;DHT22;3968;51.424;6.788;2023-02-28T00:17:14;2.70;99.90
7846;DHT22;3968;51.424;6.788;2023-02-28T00:19:40;2.70;99.90
7846;DHT22;3968;51.424;6.788;2023-02-28T00:22:05;2.70;99.90
7846;DHT22;3968;51.424;6.788;2023-02-28T00:24:31;2.70;99.90
7846;DHT22;3968;51.424;6.788;2023-02-28T00:26:56;2.70;99.90
7846;DHT22;3968;51.424;6.788;2023-02-28T00:29:22;2.70;99.90
7846;DHT22;3968;51.424;6.788;2023-02-28T00:31:48;2.60;99.90
7846;DHT22;3968;51.424;6.788;2023-02-28T00:34:13;2.50;99.90
7846;DHT22;3968;51.424;6.788;2023-02-28T00:36:39;2.50;99.90
7846;DHT22;3968;51.424;6.788;2023-02-28T00:39:06;2.50;99.90
7846;DHT22;3968;51.424;6.788;2023-02-28T00:41:31;2.60;99.90
7846;DHT22;3968;51.424;6.788;2023-02-28T00:43:57;2.60;99.90
7846;DHT22;3968;51.424;6.788;2023-02-28T00:46:23;2.60;99.90
7846;DHT22;3968;51.424;6.788;2023-02-28T00:48:48;2.60;99.90
7846;DHT22;3968;51.424;6.788;2023-02-28T00:51:14;2.50;99.90
7846;DHT22;3968;51.424;6.788;2023-02-28T00:53:39;2.50;99.90
7846;DHT22;3968;51.424;6.788;2023-02-28T00:56:05;2.60;99.90
7846;DHT22;3968;51.424;6.788;2023-02-28T00:58:31;2.50;99.90
7846;DHT22;3968;51.424;6.788;2023-02-28T01:00:56;2.60;99.90
7846;DHT22;3968;51.424;6.788;2023-02-28T01:03:22;2.50;99.90
7846;DHT22;3968;51.424;6.788;2023-02-28T01:05:48;2.50;99.90
7846;DHT22;3968;51.424;6.788;2023-02-28T01:08:14;2.50;99.90
7846;DHT22;3968;51.424;6.788;2023-02-28T01:10:40;2.50;99.90
7846;DHT22;3968;51.424;6.788;2023-02-28T01:13:06;2.50;99.90
7846;DHT22;3968;51.424;6.788;2023-02-28T01:15:32;2.50;99.90
7846;DHT22;3968;51.424;6.788;2023-02-28T01:17:58;2.60;99.90
7846;DHT22;3968;51.424;6.788;2023-02-28T01:20:24;2.50;99.90
7846;DHT22;3968;51.424;6.788;2023-02-28T01:22:50;2.50;99.90
7846;DHT22;3968;51.424;6.788;2023-02-28T01:25:15;2.50;99.90
7846;DHT22;3968;51.424;6.788;2023-02-28T01:27:41;2.50;99.90
7846;DHT22;3968;51.424;6.788;2023-02-28T01:30:08;2.40;99.90
7846;DHT22;3968;51.424;6.788;2023-02-28T01:32:35;2.50;99.90
7846;DHT22;3968;51.424;6.788;2023-02-28T01:35:01;2.40;99.90
7846;DHT22;3968;51.424;6.788;2023-02-28T01:37:27;2.40;99.90
7846;DHT22;3968;51.424;6.788;2023-02-28T01:39:53;2.50;99.90
7846;DHT22;3968;51.424;6.788;2023-02-28T01:42:19;2.50;99.90
7846;DHT22;3968;51.424;6.788;2023-02-28T01:48:04;2.50;99.90
7846;DHT22;3968;51.424;6.788;2023-02-28T01:50:35;2.40;99.90
7846;DHT22;3968;51.424;6.788;2023-02-28T01:53:08;2.40;99.90
7846;DHT22;3968;51.424;6.788;2023-02-28T01:55:36;2.40;99.90
7846;DHT22;3968;51.424;6.788;2023-02-28T01:58:04;2.40;99.90
7846;DHT22;3968;51.424;6.788;2023-02-28T02:00:32;2.40;99.90
7846;DHT22;3968;51.424;6.788;2023-02-28T02:02:59;2.40;99.90
7846;DHT22;3968;51.424;6.788;2023-02-28T02:05:29;2.40;99.90
7846;DHT22;3968;51.424;6.788;2023-02-28T02:08:00;2.40;99.90
7846;DHT22;3968;51.424;6.788;2023-02-28T02:13:34;2.30;99.90
7846;DHT22;3968;51.424;6.788;2023-02-28T02:26:47;2.20;99.90
7846;DHT22;3968;51.424;6.788;2023-02-28T02:35:28;2.20;99.90
7846;DHT22;3968;51.424;6.788;2023-02-28T02:40:56;2.10;99.90
7846;DHT22;3968;51.424;6.788;2023-02-28T02:44:06;2.10;99.90
7846;DHT22;3968;51.424;6.788;2023-02-28T02:46:41;2.10;99.90
7846;DHT22;3968;51.424;6.788;2023-02-28T02:49:10;2.10;99.90
7846;DHT22;3968;51.424;6.788;2023-02-28T02:51:39;2.00;99.90
7846;DHT22;3968;51.424;6.788;2023-02-28T02:54:10;2.00;99.90
7846;DHT22;3968;51.424;6.788;2023-02-28T02:56:39;2.00;99.90
7846;DHT22;3968;51.424;6.788;2023-02-28T02:59:09;2.00;99.90
7846;DHT22;3968;51.424;6.788;2023-02-28T03:01:37;2.00;99.90
7846;DHT22;3968;51.424;6.788;2023-02-28T03:04:18;1.90;99.90
7846;DHT22;3968;51.424;6.788;2023-02-28T03:06:44;1.80;99.90
7846;DHT22;3968;51.424;6.788;2023-02-28T03:09:09;1.80;99.90
7846;DHT22;3968;51.424;6.788;2023-02-28T03:11:37;1.90;99.90
7846;DHT22;3968;51.424;6.788;2023-02-28T03:14:16;1.90;99.90
7846;DHT22;3968;51.424;6.788;2023-02-28T03:19:45;1.70;99.90
7846;DHT22;3968;51.424;6.788;2023-02-28T03:22:32;1.70;99.90
7846;DHT22;3968;51.424;6.788;2023-02-28T03:25:38;1.80;99.90
7846;DHT22;3968;51.424;6.788;2023-02-28T03:31:41;1.70;99.90
7846;DHT22;3968;51.424;6.788;2023-02-28T03:33:39;1.70;99.90
7846;DHT22;3968;51.424;6.788;2023-02-28T03:36:16;1.70;99.90
7846;DHT22;3968;51.424;6.788;2023-02-28T03:38:49;1.70;99.90
7846;DHT22;3968;51.424;6.788;2023-02-28T03:41:24;1.60;99.90
7846;DHT22;3968;51.424;6.788;2023-02-28T03:44:03;1.60;99.90
7846;DHT22;3968;51.424;6.788;2023-02-28T03:46:34;1.70;99.90
7846;DHT22;3968;51.424;6.788;2023-02-28T03:49:03;1.60;99.90
7846;DHT22;3968;51.424;6.788;2023-02-28T03:51:32;1.60;99.90
7846;DHT22;3968;51.424;6.788;2023-02-28T03:54:02;1.50;99.90
7846;DHT22;3968;51.424;6.788;2023-02-28T03:56:38;1.50;99.90
7846;DHT22;3968;51.424;6.788;2023-02-28T03:59:18;1.50;99.90
7846;DHT22;3968;51.424;6.788;2023-02-28T04:01:48;1.60;99.90
7846;DHT22;3968;51.424;6.788;2023-02-28T04:04:15;1.70;99.90
7846;DHT22;3968;51.424;6.788;2023-02-28T04:06:41;1.70;99.90
7846;DHT22;3968;51.424;6.788;2023-02-28T04:09:09;1.70;99.90
7846;DHT22;3968;51.424;6.788;2023-02-28T04:11:40;1.70;99.90
7846;DHT22;3968;51.424;6.788;2023-02-28T04:14:08;1.70;99.90
7846;DHT22;3968;51.424;6.788;2023-02-28T04:16:36;1.70;99.90
7846;DHT22;3968;51.424;6.788;2023-02-28T04:19:06;1.70;99.90
7846;DHT22;3968;51.424;6.788;2023-02-28T04:21:38;1.60;99.90
7846;DHT22;3968;51.424;6.788;2023-02-28T04:24:21;1.60;99.90
7846;DHT22;3968;51.424;6.788;2023-02-28T04:26:49;1.50;99.90
7846;DHT22;3968;51.424;6.788;2023-02-28T04:29:29;1.50;99.90
7846;DHT22;3968;51.424;6.788;2023-02-28T04:31:55;1.50;99.90
7846;DHT22;3968;51.424;6.788;2023-02-28T04:34:23;1.40;99.90
7846;DHT22;3968;51.424;6.788;2023-02-28T04:36:50;1.40;99.90
7846;DHT22;3968;51.424;6.788;2023-02-28T04:39:16;1.40;99.90
7846;DHT22;3968;51.424;6.788;2023-02-28T04:41:44;1.40;99.90
7846;DHT22;3968;51.424;6.788;2023-02-28T04:44:10;1.40;99.90
7846;DHT22;3968;51.424;6.788;2023-02-28T04:46:35;1.40;99.90
7846;DHT22;3968;51.424;6.788;2023-02-28T04:49:01;1.40;99.90
7846;DHT22;3968;51.424;6.788;2023-02-28T04:51:26;1.50;99.90
7846;DHT22;3968;51.424;6.788;2023-02-28T04:53:52;1.50;99.90
7846;DHT22;3968;51.424;6.788;2023-02-28T04:56:18;1.50;99.90
7846;DHT22;3968;51.424;6.788;2023-02-28T04:58:44;1.50;99.90
7846;DHT22;3968;51.424;6.788;2023-02-28T05:03:43;1.50;99.90
7846;DHT22;3968;51.424;6.788;2023-02-28T05:06:10;1.50;99.90
7846;DHT22;3968;51.424;6.788;2023-02-28T05:08:36;1.50;99.90
7846;DHT22;3968;51.424;6.788;2023-02-28T05:11:03;1.50;99.90
7846;DHT22;3968;51.424;6.788;2023-02-28T05:13:29;1.50;99.90
7846;DHT22;3968;51.424;6.788;2023-02-28T05:15:55;1.50;99.90
7846;DHT22;3968;51.424;6.788;2023-02-28T05:18:21;1.40;99.90
7846;DHT22;3968;51.424;6.788;2023-02-28T05:20:47;1.40;99.90
7846;DHT22;3968;51.424;6.788;2023-02-28T05:23:13;1.40;99.90
7846;DHT22;3968;51.424;6.788;2023-02-28T05:25:39;1.40;99.90
7846;DHT22;3968;51.424;6.788;2023-02-28T05:28:06;1.30;99.90
7846;DHT22;3968;51.424;6.788;2023-02-28T05:30:32;1.30;99.90
7846;DHT22;3968;51.424;6.788;2023-02-28T05:32:58;1.40;99.90
7846;DHT22;3968;51.424;6.788;2023-02-28T05:35:24;1.40;99.90
7846;DHT22;3968;51.424;6.788;2023-02-28T05:37:50;1.30;99.90
7846;DHT22;3968;51.424;6.788;2023-02-28T05:40:17;1.30;99.90
7846;DHT22;3968;51.424;6.788;2023-02-28T05:42:42;1.30;99.90
7846;DHT22;3968;51.424;6.788;2023-02-28T05:45:09;1.30;99.90
7846;DHT22;3968;51.424;6.788;2023-02-28T05:47:35;1.30;99.90
7846;DHT22;3968;51.424;6.788;2023-02-28T05:50:01;1.30;99.90
7846;DHT22;3968;51.424;6.788;2023-02-28T05:52:28;1.30;99.90
7846;DHT22;3968;51.424;6.788;2023-02-28T05:54:55;1.30;99.90
7846;DHT22;3968;51.424;6.788;2023-02-28T05:57:21;1.30;99.90
7846;DHT22;3968;51.424;6.788;2023-02-28T05:59:47;1.20;99.90
7846;DHT22;3968;51.424;6.788;2023-02-28T06:02:14;1.20;99.90
7846;DHT22;3968;51.424;6.788;2023-02-28T06:04:40;1.30;99.90
7846;DHT22;3968;51.424;6.788;2023-02-28T06:07:07;1.20;99.90
7846;DHT22;3968;51.424;6.788;2023-02-28T06:09:32;1.20;99.90
7846;DHT22;3968;51.424;6.788;2023-02-28T06:12:00;1.20;99.90
7846;DHT22;3968;51.424;6.788;2023-02-28T06:14:25;1.20;99.90
7846;DHT22;3968;51.424;6.788;2023-02-28T06:16:51;1.30;99.90
7846;DHT22;3968;51.424;6.788;2023-02-28T06:19:17;1.30;99.90
7846;DHT22;3968;51.424;6.788;2023-02-28T06:21:43;1.20;99.90
7846;DHT22;3968;51.424;6.788;2023-02-28T06:24:09;1.20;99.90
7846;DHT22;3968;51.424;6.788;2023-02-28T06:26:35;1.10;99.90
7846;DHT22;3968;51.424;6.788;2023-02-28T06:29:00;1.10;99.90
7846;DHT22;3968;51.424;6.788;2023-02-28T06:31:26;1.10;99.90
7846;DHT22;3968;51.424;6.788;2023-02-28T06:33:54;1.10;99.90
7846;DHT22;3968;51.424;6.788;2023-02-28T06:36:20;1.20;99.90
7846;DHT22;3968;51.424;6.788;2023-02-28T06:38:46;1.10;99.90
7846;DHT22;3968;51.424;6.788;2023-02-28T06:41:16;1.10;99.90
7846;DHT22;3968;51.424;6.788;2023-02-28T06:43:42;1.10;99.90
7846;DHT22;3968;51.424;6.788;2023-02-28T06:46:11;1.10;99.90
7846;DHT22;3968;51.424;6.788;2023-02-28T06:48:37;1.10;99.90
7846;DHT22;3968;51.424;6.788;2023-02-28T06:51:08;1.20;99.90
7846;DHT22;3968;51.424;6.788;2023-02-28T06:53:35;1.20;99.90
7846;DHT22;3968;51.424;6.788;2023-02-28T06:56:05;1.20;99.90
7846;DHT22;3968;51.424;6.788;2023-02-28T06:58:31;1.20;99.90
7846;DHT22;3968;51.424;6.788;2023-02-28T07:00:57;1.20;99.90
7846;DHT22;3968;51.424;6.788;2023-02-28T07:03:23;1.20;99.90
7846;DHT22;3968;51.424;6.788;2023-02-28T07:05:48;1.20;99.90
7846;DHT22;3968;51.424;6.788;2023-02-28T07:08:14;1.30;99.90
7846;DHT22;3968;51.424;6.788;2023-02-28T07:10:40;1.30;99.90
7846;DHT22;3968;51.424;6.788;2023-02-28T07:13:07;1.30;99.90
7846;DHT22;3968;51.424;6.788;2023-02-28T07:15:33;1.30;99.90
7846;DHT22;3968;51.424;6.788;2023-02-28T07:17:59;1.20;99.90
7846;DHT22;3968;51.424;6.788;2023-02-28T07:20:25;1.20;99.90
7846;DHT22;3968;51.424;6.788;2023-02-28T07:22:51;1.20;99.90
7846;DHT22;3968;51.424;6.788;2023-02-28T07:25:21;1.30;99.90
7846;DHT22;3968;51.424;6.788;2023-02-28T07:27:47;1.30;99.90
7846;DHT22;3968;51.424;6.788;2023-02-28T07:30:13;1.40;99.90
7846;DHT22;3968;51.424;6.788;2023-02-28T07:32:38;1.40;99.90
7846;DHT22;3968;51.424;6.788;2023-02-28T07:35:04;1.40;99.90
7846;DHT22;3968;51.424;6.788;2023-02-28T07:37:30;1.40;99.90
7846;DHT22;3968;51.424;6.788;2023-02-28T07:40:04;1.50;99.90
7846;DHT22;3968;51.424;6.788;2023-02-28T07:42:32;1.50;99.90
7846;DHT22;3968;51.424;6.788;2023-02-28T07:44:57;1.50;99.90
7846;DHT22;3968;51.424;6.788;2023-02-28T07:47:24;1.60;99.90
7846;DHT22;3968;51.424;6.788;2023-02-28T07:49:50;1.60;99.90
7846;DHT22;3968;51.424;6.788;2023-02-28T07:52:16;1.60;99.90
7846;DHT22;3968;51.424;6.788;2023-02-28T07:54:41;1.60;99.90
7846;DHT22;3968;51.424;6.788;2023-02-28T07:57:07;1.60;99.90
7846;DHT22;3968;51.424;6.788;2023-02-28T07:59:33;1.60;99.90
7846;DHT22;3968;51.424;6.788;2023-02-28T08:01:58;1.60;99.90
7846;DHT22;3968;51.424;6.788;2023-02-28T08:04:25;1.70;99.90
7846;DHT22;3968;51.424;6.788;2023-02-28T08:06:50;1.70;99.90
7846;DHT22;3968;51.424;6.788;2023-02-28T08:09:19;1.70;99.90
7846;DHT22;3968;51.424;6.788;2023-02-28T08:11:45;1.80;99.90
7846;DHT22;3968;51.424;6.788;2023-02-28T08:14:11;1.80;99.90
7846;DHT22;3968;51.424;6.788;2023-02-28T08:16:36;1.90;99.90
7846;DHT22;3968;51.424;6.788;2023-02-28T08:19:02;1.90;99.80
7846;DHT22;3968;51.424;6.788;2023-02-28T08:21:28;1.90;99.90
7846;DHT22;3968;51.424;6.788;2023-02-28T08:23:53;1.80;99.40
7846;DHT22;3968;51.424;6.788;2023-02-28T08:26:19;1.90;99.10
7846;DHT22;3968;51.424;6.788;2023-02-28T08:28:46;2.00;97.90
7846;DHT22;3968;51.424;6.788;2023-02-28T08:31:13;2.00;96.40
7846;DHT22;3968;51.424;6.788;2023-02-28T08:33:40;2.10;96.70
7846;DHT22;3968;51.424;6.788;2023-02-28T08:36:07;2.10;95.70
7846;DHT22;3968;51.424;6.788;2023-02-28T08:38:33;2.10;94.40
7846;DHT22;3968;51.424;6.788;2023-02-28T08:41:01;2.20;93.80
7846;DHT22;3968;51.424;6.788;2023-02-28T08:43:27;2.20;90.00
7846;DHT22;3968;51.424;6.788;2023-02-28T08:45:54;2.30;85.60
7846;DHT22;3968;51.424;6.788;2023-02-28T08:48:25;2.30;81.90
7846;DHT22;3968;51.424;6.788;2023-02-28T08:50:57;2.30;81.40
7846;DHT22;3968;51.424;6.788;2023-02-28T08:53:23;2.30;79.90
7846;DHT22;3968;51.424;6.788;2023-02-28T08:56:05;2.30;79.50
7846;DHT22;3968;51.424;6.788;2023-02-28T08:58:32;2.40;73.20
7846;DHT22;3968;51.424;6.788;2023-02-28T09:00:58;2.40;62.70
7846;DHT22;3968;51.424;6.788;2023-02-28T09:03:24;2.40;61.30
7846;DHT22;3968;51.424;6.788;2023-02-28T09:05:57;2.50;58.20
7846;DHT22;3968;51.424;6.788;2023-02-28T09:08:25;2.50;56.60
7846;DHT22;3968;51.424;6.788;2023-02-28T09:10:51;2.50;54.20
7846;DHT22;3968;51.424;6.788;2023-02-28T09:13:18;2.60;53.50
7846;DHT22;3968;51.424;6.788;2023-02-28T09:15:43;2.60;48.70
7846;DHT22;3968;51.424;6.788;2023-02-28T09:18:09;2.70;47.80
7846;DHT22;3968;51.424;6.788;2023-02-28T09:20:38;2.70;46.80
7846;DHT22;3968;51.424;6.788;2023-02-28T09:23:04;2.80;43.10
7846;DHT22;3968;51.424;6.788;2023-02-28T09:25:29;2.80;39.90
7846;DHT22;3968;51.424;6.788;2023-02-28T09:27:55;2.90;37.40
7846;DHT22;3968;51.424;6.788;2023-02-28T09:30:20;2.90;35.20
7846;DHT22;3968;51.424;6.788;2023-02-28T09:32:46;2.90;33.60
7846;DHT22;3968;51.424;6.788;2023-02-28T09:35:18;3.00;32.00
7846;DHT22;3968;51.424;6.788;2023-02-28T09:37:44;3.00;31.40
7846;DHT22;3968;51.424;6.788;2023-02-28T09:40:10;3.00;31.20
7846;DHT22;3968;51.424;6.788;2023-02-28T09:42:37;3.10;29.00
7846;DHT22;3968;51.424;6.788;2023-02-28T09:45:59;3.10;28.10
7846;DHT22;3968;51.424;6.788;2023-02-28T09:48:10;3.20;27.40
7846;DHT22;3968;51.424;6.788;2023-02-28T09:50:48;3.20;26.10
7846;DHT22;3968;51.424;6.788;2023-02-28T09:55:49;3.30;24.90
7846;DHT22;3968;51.424;6.788;2023-02-28T09:58:23;3.40;25.30
7846;DHT22;3968;51.424;6.788;2023-02-28T10:06:27;3.50;23.60
7846;DHT22;3968;51.424;6.788;2023-02-28T10:09:02;3.50;23.10
7846;DHT22;3968;51.424;6.788;2023-02-28T10:11:29;3.50;22.00
7846;DHT22;3968;51.424;6.788;2023-02-28T10:14:26;3.60;21.20
7846;DHT22;3968;51.424;6.788;2023-02-28T10:17:17;3.60;20.20
7846;DHT22;3968;51.424;6.788;2023-02-28T10:22:27;3.80;19.00
7846;DHT22;3968;51.424;6.788;2023-02-28T10:24:55;3.80;18.10
7846;DHT22;3968;51.424;6.788;2023-02-28T10:27:29;3.90;17.70
7846;DHT22;3968;51.424;6.788;2023-02-28T10:29:57;3.90;17.80
7846;DHT22;3968;51.424;6.788;2023-02-28T10:37:42;4.30;16.50
7846;DHT22;3968;51.424;6.788;2023-02-28T10:40:28;4.40;15.90
7846;DHT22;3968;51.424;6.788;2023-02-28T10:43:03;4.40;15.70
7846;DHT22;3968;51.424;6.788;2023-02-28T10:45:34;4.50;15.00
7846;DHT22;3968;51.424;6.788;2023-02-28T10:48:24;4.50;13.70
7846;DHT22;3968;51.424;6.788;2023-02-28T10:50:53;4.40;13.00
7846;DHT22;3968;51.424;6.788;2023-02-28T11:01:43;4.60;13.10
7846;DHT22;3968;51.424;6.788;2023-02-28T11:04:32;4.80;11.90
7846;DHT22;3968;51.424;6.788;2023-02-28T11:07:00;4.80;12.10
7846;DHT22;3968;51.424;6.788;2023-02-28T11:09:38;4.90;11.70
7846;DHT22;3968;51.424;6.788;2023-02-28T11:12:23;5.00;11.80
7846;DHT22;3968;51.424;6.788;2023-02-28T11:14:53;5.10;11.90
7846;DHT22;3968;51.424;6.788;2023-02-28T11:17:25;5.10;12.00
7846;DHT22;3968;51.424;6.788;2023-02-28T11:19:54;5.10;12.30
7846;DHT22;3968;51.424;6.788;2023-02-28T11:22:27;5.10;11.20
7846;DHT22;3968;51.424;6.788;2023-02-28T11:25:02;5.00;10.50
7846;DHT22;3968;51.424;6.788;2023-02-28T11:30:00;4.90;8.40
7846;DHT22;3968;51.424;6.788;2023-02-28T11:32:29;4.80;8.00
7846;DHT22;3968;51.424;6.788;2023-02-28T11:35:26;4.80;7.60
7846;DHT22;3968;51.424;6.788;2023-02-28T11:37:55;4.70;7.50
7846;DHT22;3968;51.424;6.788;2023-02-28T11:40:30;4.70;7.50
7846;DHT22;3968;51.424;6.788;2023-02-28T11:46:22;4.70;7.60
7846;DHT22;3968;51.424;6.788;2023-02-28T11:49:06;4.70;7.90
7846;DHT22;3968;51.424;6.788;2023-02-28T12:13:26;4.90;7.40
7846;DHT22;3968;51.424;6.788;2023-02-28T12:21:20;4.90;8.10
7846;DHT22;3968;51.424;6.788;2023-02-28T12:26:38;5.00;8.20
7846;DHT22;3968;51.424;6.788;2023-02-28T12:29:30;5.00;8.30
7846;DHT22;3968;51.424;6.788;2023-02-28T12:32:19;5.00;8.20
7846;DHT22;3968;51.424;6.788;2023-02-28T12:34:55;5.10;8.70
7846;DHT22;3968;51.424;6.788;2023-02-28T12:37:33;5.20;9.30
7846;DHT22;3968;51.424;6.788;2023-02-28T12:40:05;5.10;8.80
7846;DHT22;3968;51.424;6.788;2023-02-28T12:42:36;5.10;8.90
7846;DHT22;3968;51.424;6.788;2023-02-28T12:45:19;5.10;8.90
7846;DHT22;3968;51.424;6.788;2023-02-28T12:47:50;5.10;9.20
7846;DHT22;3968;51.424;6.788;2023-02-28T12:50:18;5.10;9.10
7846;DHT22;3968;51.424;6.788;2023-02-28T12:52:59;5.10;9.10
7846;DHT22;3968;51.424;6.788;2023-02-28T12:55:29;5.20;9.00
7846;DHT22;3968;51.424;6.788;2023-02-28T12:58:28;5.20;8.90
7846;DHT22;3968;51.424;6.788;2023-02-28T13:04:54;5.30;8.80
7846;DHT22;3968;51.424;6.788;2023-02-28T13:10:04;5.40;8.00
7846;DHT22;3968;51.424;6.788;2023-02-28T13:12:31;5.40;7.70
7846;DHT22;3968;51.424;6.788;2023-02-28T13:17:48;5.40;7.70
7846;DHT22;3968;51.424;6.788;2023-02-28T13:20:17;5.30;7.90
7846;DHT22;3968;51.424;6.788;2023-02-28T13:22:47;5.30;7.90
7846;DHT22;3968;51.424;6.788;2023-02-28T13:27:49;5.40;8.40
7846;DHT22;3968;51.424;6.788;2023-02-28T13:33:33;5.50;8.50
7846;DHT22;3968;51.424;6.788;2023-02-28T13:38:51;5.50;8.60
7846;DHT22;3968;51.424;6.788;2023-02-28T13:41:42;5.50;8.50
7846;DHT22;3968;51.424;6.788;2023-02-28T13:44:13;5.50;7.90
7846;DHT22;3968;51.424;6.788;2023-02-28T13:52:19;5.50;9.20
7846;DHT22;3968;51.424;6.788;2023-02-28T13:55:00;5.50;9.90
7846;DHT22;3968;51.424;6.788;2023-02-28T13:57:34;5.50;10.10
7846;DHT22;3968;51.424;6.788;2023-02-28T14:03:12;5.50;11.10
7846;DHT22;3968;51.424;6.788;2023-02-28T14:05:40;5.50;11.70
7846;DHT22;3968;51.424;6.788;2023-02-28T14:08:15;5.50;11.50
7846;DHT22;3968;51.424;6.788;2023-02-28T14:10:48;5.60;11.50
7846;DHT22;3968;51.424;6.788;2023-02-28T14:16:04;5.60;11.30
7846;DHT22;3968;51.424;6.788;2023-02-28T14:18:36;5.60;11.60
7846;DHT22;3968;51.424;6.788;2023-02-28T14:21:12;5.70;12.10
7846;DHT22;3968;51.424;6.788;2023-02-28T14:29:08;5.70;11.70
7846;DHT22;3968;51.424;6.788;2023-02-28T14:31:41;5.70;12.00
7846;DHT22;3968;51.424;6.788;2023-02-28T14:36:45;5.70;11.70
7846;DHT22;3968;51.424;6.788;2023-02-28T14:41:41;5.70;11.80
7846;DHT22;3968;51.424;6.788;2023-02-28T14:44:17;5.70;12.10
7846;DHT22;3968;51.424;6.788;2023-02-28T14:46:44;5.70;12.00
7846;DHT22;3968;51.424;6.788;2023-02-28T14:49:30;5.70;12.20
7846;DHT22;3968;51.424;6.788;2023-02-28T14:52:11;5.80;12.40
7846;DHT22;3968;51.424;6.788;2023-02-28T14:54:38;5.80;12.70
7846;DHT22;3968;51.424;6.788;2023-02-28T14:57:05;5.80;12.90
7846;DHT22;3968;51.424;6.788;2023-02-28T14:59:35;5.80;13.50
7846;DHT22;3968;51.424;6.788;2023-02-28T15:02:36;5.80;13.70
7846;DHT22;3968;51.424;6.788;2023-02-28T15:07:45;5.80;13.10
7846;DHT22;3968;51.424;6.788;2023-02-28T15:12:56;5.80;12.70
7846;DHT22;3968;51.424;6.788;2023-02-28T15:21:06;5.70;12.10
7846;DHT22;3968;51.424;6.788;2023-02-28T15:23:34;5.70;12.00
7846;DHT22;3968;51.424;6.788;2023-02-28T15:26:02;5.70;12.10
7846;DHT22;3968;51.424;6.788;2023-02-28T15:28:28;5.70;12.30
7846;DHT22;3968;51.424;6.788;2023-02-28T15:30:56;5.70;12.90
7846;DHT22;3968;51.424;6.788;2023-02-28T15:33:30;5.70;13.70
7846;DHT22;3968;51.424;6.788;2023-02-28T15:36:16;5.70;13.90
7846;DHT22;3968;51.424;6.788;2023-02-28T15:38:51;5.70;14.20
7846;DHT22;3968;51.424;6.788;2023-02-28T15:41:26;5.80;13.80
7846;DHT22;3968;51.424;6.788;2023-02-28T15:44:15;5.70;13.60
7846;DHT22;3968;51.424;6.788;2023-02-28T15:47:11;5.60;13.80
7846;DHT22;3968;51.424;6.788;2023-02-28T15:49:56;5.60;14.20
7846;DHT22;3968;51.424;6.788;2023-02-28T15:52:29;5.60;14.30
7846;DHT22;3968;51.424;6.788;2023-02-28T15:54:58;5.50;14.70
7846;DHT22;3968;51.424;6.788;2023-02-28T15:57:27;5.60;14.60
7846;DHT22;3968;51.424;6.788;2023-02-28T16:00:00;5.50;13.80
7846;DHT22;3968;51.424;6.788;2023-02-28T16:02:34;5.50;13.70
7846;DHT22;3968;51.424;6.788;2023-02-28T16:07:47;5.50;13.40
7846;DHT22;3968;51.424;6.788;2023-02-28T16:10:14;5.50;13.30
7846;DHT22;3968;51.424;6.788;2023-02-28T16:12:40;5.40;14.10
7846;DHT22;3968;51.424;6.788;2023-02-28T16:15:14;5.40;14.30
7846;DHT22;3968;51.424;6.788;2023-02-28T16:17:42;5.50;14.60
7846;DHT22;3968;51.424;6.788;2023-02-28T16:20:15;5.50;14.90
7846;DHT22;3968;51.424;6.788;2023-02-28T16:22:42;5.50;15.10
7846;DHT22;3968;51.424;6.788;2023-02-28T16:25:12;5.50;15.50
7846;DHT22;3968;51.424;6.788;2023-02-28T16:27:38;5.50;15.90
7846;DHT22;3968;51.424;6.788;2023-02-28T16:30:15;5.40;16.80
7846;DHT22;3968;51.424;6.788;2023-02-28T16:32:41;5.40;17.20
7846;DHT22;3968;51.424;6.788;2023-02-28T16:35:10;5.40;17.60
7846;DHT22;3968;51.424;6.788;2023-02-28T16:37:36;5.40;18.00
7846;DHT22;3968;51.424;6.788;2023-02-28T16:40:03;5.40;18.30
7846;DHT22;3968;51.424;6.788;2023-02-28T16:42:28;5.40;18.60
7846;DHT22;3968;51.424;6.788;2023-02-28T16:44:56;5.40;18.80
7846;DHT22;3968;51.424;6.788;2023-02-28T16:47:23;5.30;18.70
7846;DHT22;3968;51.424;6.788;2023-02-28T16:49:49;5.30;19.10
7846;DHT22;3968;51.424;6.788;2023-02-28T16:52:15;5.30;18.40
7846;DHT22;3968;51.424;6.788;2023-02-28T16:54:41;5.20;18.50
7846;DHT22;3968;51.424;6.788;2023-02-28T16:57:19;5.20;17.90
7846;DHT22;3968;51.424;6.788;2023-02-28T16:59:47;5.10;18.30
7846;DHT22;3968;51.424;6.788;2023-02-28T17:02:14;5.10;18.20
7846;DHT22;3968;51.424;6.788;2023-02-28T17:04:40;5.10;18.80
7846;DHT22;3968;51.424;6.788;2023-02-28T17:07:11;5.10;18.80
7846;DHT22;3968;51.424;6.788;2023-02-28T17:09:38;5.10;18.50
7846;DHT22;3968;51.424;6.788;2023-02-28T17:12:04;5.10;18.90
7846;DHT22;3968;51.424;6.788;2023-02-28T17:14:29;5.00;18.90
7846;DHT22;3968;51.424;6.788;2023-02-28T17:16:55;5.00;19.10
7846;DHT22;3968;51.424;6.788;2023-02-28T17:19:21;5.00;19.00
7846;DHT22;3968;51.424;6.788;2023-02-28T17:21:46;5.00;19.20
7846;DHT22;3968;51.424;6.788;2023-02-28T17:24:12;5.00;19.10
7846;DHT22;3968;51.424;6.788;2023-02-28T17:26:40;4.90;19.40
7846;DHT22;3968;51.424;6.788;2023-02-28T17:29:15;4.90;19.90
7846;DHT22;3968;51.424;6.788;2023-02-28T17:31:41;4.90;20.20
7846;DHT22;3968;51.424;6.788;2023-02-28T17:34:06;4.90;20.30
7846;DHT22;3968;51.424;6.788;2023-02-28T17:36:33;4.90;20.50
7846;DHT22;3968;51.424;6.788;2023-02-28T17:38:59;4.90;20.60
7846;DHT22;3968;51.424;6.788;2023-02-28T17:41:26;4.90;20.70
7846;DHT22;3968;51.424;6.788;2023-02-28T17:43:52;4.90;21.10
7846;DHT22;3968;51.424;6.788;2023-02-28T17:46:23;4.80;21.60
7846;DHT22;3968;51.424;6.788;2023-02-28T17:48:51;4.80;22.00
7846;DHT22;3968;51.424;6.788;2023-02-28T17:51:17;4.80;22.10
7846;DHT22;3968;51.424;6.788;2023-02-28T17:53:44;4.80;22.30
7846;DHT22;3968;51.424;6.788;2023-02-28T17:56:19;4.80;22.60
7846;DHT22;3968;51.424;6.788;2023-02-28T17:58:45;4.80;23.00
7846;DHT22;3968;51.424;6.788;2023-02-28T18:01:11;4.80;23.20
7846;DHT22;3968;51.424;6.788;2023-02-28T18:03:37;4.80;23.30
7846;DHT22;3968;51.424;6.788;2023-02-28T18:06:04;4.80;24.10
7846;DHT22;3968;51.424;6.788;2023-02-28T18:08:30;4.80;24.10
7846;DHT22;3968;51.424;6.788;2023-02-28T18:10:56;4.80;24.60
7846;DHT22;3968;51.424;6.788;2023-02-28T18:13:22;4.80;25.00
7846;DHT22;3968;51.424;6.788;2023-02-28T18:15:47;4.80;25.60
7846;DHT22;3968;51.424;6.788;2023-02-28T18:18:13;4.70;26.20
7846;DHT22;3968;51.424;6.788;2023-02-28T18:20:41;4.70;26.70
7846;DHT22;3968;51.424;6.788;2023-02-28T18:23:06;4.70;27.20
7846;DHT22;3968;51.424;6.788;2023-02-28T18:25:32;4.70;27.20
7846;DHT22;3968;51.424;6.788;2023-02-28T18:27:58;4.70;27.40
7846;DHT22;3968;51.424;6.788;2023-02-28T18:30:27;4.70;27.90
7846;DHT22;3968;51.424;6.788;2023-02-28T18:32:59;4.70;28.50
7846;DHT22;3968;51.424;6.788;2023-02-28T18:35:26;4.60;29.10
7846;DHT22;3968;51.424;6.788;2023-02-28T18:38:19;4.60;29.70
7846;DHT22;3968;51.424;6.788;2023-02-28T18:40:52;4.60;30.20
7846;DHT22;3968;51.424;6.788;2023-02-28T18:43:18;4.60;30.70
7846;DHT22;3968;51.424;6.788;2023-02-28T18:45:44;4.60;31.40
7846;DHT22;3968;51.424;6.788;2023-02-28T18:48:09;4.60;31.70
7846;DHT22;3968;51.424;6.788;2023-02-28T18:50:38;4.60;32.50
7846;DHT22;3968;51.424;6.788;2023-02-28T18:53:04;4.50;32.60
7846;DHT22;3968;51.424;6.788;2023-02-28T18:55:33;4.50;33.60
7846;DHT22;3968;51.424;6.788;2023-02-28T18:57:59;4.50;34.00
7846;DHT22;3968;51.424;6.788;2023-02-28T19:00:25;4.50;33.90
7846;DHT22;3968;51.424;6.788;2023-02-28T19:02:51;4.40;33.80